sensor_id;sensor_type;location;lat;lon;timestamp;temperature;humidity
816;DHT22;25928;51.062;13.752;2022-09-02T00:00:34;15.20;1.00
816;DHT22;25928;51.062;13.752;2022-09-02T00:03:00;15.10;1.00
816;DHT22;25928;51.062;13.752;2022-09-02T00:05:25;15.10;1.00
816;DHT22;25928;51.062;13.752;2022-09-02T00:07:51;15.10;1.00
816;DHT22;25928;51.062;13.752;2022-09-02T00:10:17;15.10;1.00
816;DHT22;25928;51.062;13.752;2022-09-02T00:12:42;15.00;1.00
816;DHT22;25928;51.062;13.752;2022-09-02T00:15:08;15.00;1.00
816;DHT22;25928;51.062;13.752;2022-09-02T00:17:34;14.90;1.00
816;DHT22;25928;51.062;13.752;2022-09-02T00:19:59;14.90;1.00
816;DHT22;25928;51.062;13.752;2022-09-02T00:22:25;15.00;1.00
816;DHT22;25928;51.062;13.752;2022-09-02T00:24:50;14.80;1.00
816;DHT22;25928;51.062;13.752;2022-09-02T00:27:16;14.80;1.00
816;DHT22;25928;51.062;13.752;2022-09-02T00:29:42;14.70;1.00
816;DHT22;25928;51.062;13.752;2022-09-02T00:32:07;14.70;1.00
816;DHT22;25928;51.062;13.752;2022-09-02T00:34:33;14.80;1.00
816;DHT22;25928;51.062;13.752;2022-09-02T00:36:58;14.80;1.00
816;DHT22;25928;51.062;13.752;2022-09-02T00:39:24;14.70;1.00
816;DHT22;25928;51.062;13.752;2022-09-02T00:41:50;14.70;1.00
816;DHT22;25928;51.062;13.752;2022-09-02T00:44:18;14.70;1.00
816;DHT22;25928;51.062;13.752;2022-09-02T00:46:45;14.60;1.00
816;DHT22;25928;51.062;13.752;2022-09-02T00:49:16;14.60;1.00
816;DHT22;25928;51.062;13.752;2022-09-02T00:51:46;14.60;1.00
816;DHT22;25928;51.062;13.752;2022-09-02T00:54:14;14.60;1.00
816;DHT22;25928;51.062;13.752;2022-09-02T00:56:42;14.60;1.00
816;DHT22;25928;51.062;13.752;2022-09-02T00:59:13;14.60;1.00
816;DHT22;25928;51.062;13.752;2022-09-02T01:01:40;14.60;1.00
816;DHT22;25928;51.062;13.752;2022-09-02T01:04:06;14.50;1.00
816;DHT22;25928;51.062;13.752;2022-09-02T01:06:32;14.40;1.00
816;DHT22;25928;51.062;13.752;2022-09-02T01:09:04;14.40;1.00
816;DHT22;25928;51.062;13.752;2022-09-02T01:11:46;14.50;1.00
816;DHT22;25928;51.062;13.752;2022-09-02T01:14:13;14.40;1.00
816;DHT22;25928;51.062;13.752;2022-09-02T01:16:43;14.40;1.00
816;DHT22;25928;51.062;13.752;2022-09-02T01:19:47;14.40;1.00
816;DHT22;25928;51.062;13.752;2022-09-02T01:22:22;14.40;1.00
816;DHT22;25928;51.062;13.752;2022-09-02T01:24:49;14.40;1.00
816;DHT22;25928;51.062;13.752;2022-09-02T01:27:17;14.40;1.00
816;DHT22;25928;51.062;13.752;2022-09-02T01:29:44;14.30;1.00
816;DHT22;25928;51.062;13.752;2022-09-02T01:32:11;14.30;1.00
816;DHT22;25928;51.062;13.752;2022-09-02T01:34:37;14.30;1.00
816;DHT22;25928;51.062;13.752;2022-09-02T01:37:02;14.20;1.00
816;DHT22;25928;51.062;13.752;2022-09-02T01:39:28;14.30;1.00
816;DHT22;25928;51.062;13.752;2022-09-02T01:41:54;14.30;1.00
816;DHT22;25928;51.062;13.752;2022-09-02T01:44:20;14.40;1.00
816;DHT22;25928;51.062;13.752;2022-09-02T01:46:46;14.20;1.00
816;DHT22;25928;51.062;13.752;2022-09-02T01:49:12;14.20;1.00
816;DHT22;25928;51.062;13.752;2022-09-02T01:51:38;14.20;1.00
816;DHT22;25928;51.062;13.752;2022-09-02T01:54:03;14.10;1.00
816;DHT22;25928;51.062;13.752;2022-09-02T01:56:29;14.10;1.00
816;DHT22;25928;51.062;13.752;2022-09-02T01:58:55;14.00;1.00
816;DHT22;25928;51.062;13.752;2022-09-02T02:01:20;14.00;1.00
816;DHT22;25928;51.062;13.752;2022-09-02T02:03:46;13.90;1.00
816;DHT22;25928;51.062;13.752;2022-09-02T02:06:13;13.90;1.00
816;DHT22;25928;51.062;13.752;2022-09-02T02:08:40;13.90;1.00
816;DHT22;25928;51.062;13.752;2022-09-02T02:13:32;13.90;1.00
816;DHT22;25928;51.062;13.752;2022-09-02T02:15:58;13.90;1.00
816;DHT22;25928;51.062;13.752;2022-09-02T02:18:23;13.90;1.00
816;DHT22;25928;51.062;13.752;2022-09-02T02:20:49;13.80;1.00
816;DHT22;25928;51.062;13.752;2022-09-02T02:23:15;14.00;1.00
816;DHT22;25928;51.062;13.752;2022-09-02T02:25:40;13.90;1.00
816;DHT22;25928;51.062;13.752;2022-09-02T02:28:06;13.80;1.00
816;DHT22;25928;51.062;13.752;2022-09-02T02:30:32;13.90;1.00
816;DHT22;25928;51.062;13.752;2022-09-02T02:32:58;13.80;1.00
816;DHT22;25928;51.062;13.752;2022-09-02T02:35:24;13.90;1.00
816;DHT22;25928;51.062;13.752;2022-09-02T02:37:50;13.80;1.00
816;DHT22;25928;51.062;13.752;2022-09-02T02:40:22;13.70;1.00
816;DHT22;25928;51.062;13.752;2022-09-02T02:42:49;13.70;1.00
816;DHT22;25928;51.062;13.752;2022-09-02T02:45:17;13.70;1.00
816;DHT22;25928;51.062;13.752;2022-09-02T02:47:43;13.70;1.00
816;DHT22;25928;51.062;13.752;2022-09-02T02:50:13;13.60;1.00
816;DHT22;25928;51.062;13.752;2022-09-02T02:52:40;13.60;1.00
816;DHT22;25928;51.062;13.752;2022-09-02T02:55:08;13.60;1.00
816;DHT22;25928;51.062;13.752;2022-09-02T02:57:35;13.50;1.00
816;DHT22;25928;51.062;13.752;2022-09-02T03:02:34;13.50;1.00
816;DHT22;25928;51.062;13.752;2022-09-02T03:04:59;13.40;1.00
816;DHT22;25928;51.062;13.752;2022-09-02T03:07:26;13.40;1.00
816;DHT22;25928;51.062;13.752;2022-09-02T03:09:52;13.50;1.00
816;DHT22;25928;51.062;13.752;2022-09-02T03:12:17;13.40;1.00
816;DHT22;25928;51.062;13.752;2022-09-02T03:14:43;13.40;1.00
816;DHT22;25928;51.062;13.752;2022-09-02T03:17:09;13.40;1.00
816;DHT22;25928;51.062;13.752;2022-09-02T03:19:35;13.40;1.00
816;DHT22;25928;51.062;13.752;2022-09-02T03:22:00;13.40;1.00
816;DHT22;25928;51.062;13.752;2022-09-02T03:24:26;13.40;1.00
816;DHT22;25928;51.062;13.752;2022-09-02T03:26:51;13.40;1.00
816;DHT22;25928;51.062;13.752;2022-09-02T03:29:17;13.40;1.00
816;DHT22;25928;51.062;13.752;2022-09-02T03:31:43;13.40;1.00
816;DHT22;25928;51.062;13.752;2022-09-02T03:34:08;13.30;1.00
816;DHT22;25928;51.062;13.752;2022-09-02T03:36:37;13.30;1.00
816;DHT22;25928;51.062;13.752;2022-09-02T03:39:05;13.40;1.00
816;DHT22;25928;51.062;13.752;2022-09-02T03:41:31;13.40;1.00
816;DHT22;25928;51.062;13.752;2022-09-02T03:43:57;13.40;1.00
816;DHT22;25928;51.062;13.752;2022-09-02T03:46:23;13.40;1.00
816;DHT22;25928;51.062;13.752;2022-09-02T03:48:48;13.40;1.00
816;DHT22;25928;51.062;13.752;2022-09-02T03:51:17;13.40;1.00
816;DHT22;25928;51.062;13.752;2022-09-02T03:53:43;13.40;1.00
816;DHT22;25928;51.062;13.752;2022-09-02T03:56:10;13.40;1.00
816;DHT22;25928;51.062;13.752;2022-09-02T03:58:37;13.30;1.00
816;DHT22;25928;51.062;13.752;2022-09-02T04:01:07;13.30;1.00
816;DHT22;25928;51.062;13.752;2022-09-02T04:03:33;13.40;1.00
816;DHT22;25928;51.062;13.752;2022-09-02T04:05:59;13.40;1.00
816;DHT22;25928;51.062;13.752;2022-09-02T04:08:24;13.30;1.00
816;DHT22;25928;51.062;13.752;2022-09-02T04:10:50;13.30;1.00
816;DHT22;25928;51.062;13.752;2022-09-02T04:13:16;13.20;1.00
816;DHT22;25928;51.062;13.752;2022-09-02T04:15:43;13.30;1.00
816;DHT22;25928;51.062;13.752;2022-09-02T04:18:12;13.30;1.00
816;DHT22;25928;51.062;13.752;2022-09-02T04:20:39;13.40;1.00
816;DHT22;25928;51.062;13.752;2022-09-02T04:23:06;13.30;1.00
816;DHT22;25928;51.062;13.752;2022-09-02T04:25:32;13.30;1.00
816;DHT22;25928;51.062;13.752;2022-09-02T04:27:58;13.40;1.00
816;DHT22;25928;51.062;13.752;2022-09-02T04:30:24;13.40;1.00
816;DHT22;25928;51.062;13.752;2022-09-02T04:32:50;13.30;1.00
816;DHT22;25928;51.062;13.752;2022-09-02T04:35:16;13.30;1.00
816;DHT22;25928;51.062;13.752;2022-09-02T04:37:42;13.30;1.00
816;DHT22;25928;51.062;13.752;2022-09-02T04:40:08;13.00;1.00
816;DHT22;25928;51.062;13.752;2022-09-02T04:42:34;13.20;1.00
816;DHT22;25928;51.062;13.752;2022-09-02T04:45:00;13.20;1.00
816;DHT22;25928;51.062;13.752;2022-09-02T04:47:26;13.10;1.00
816;DHT22;25928;51.062;13.752;2022-09-02T04:49:53;13.20;1.00
816;DHT22;25928;51.062;13.752;2022-09-02T04:52:18;13.10;1.00
816;DHT22;25928;51.062;13.752;2022-09-02T04:54:45;13.20;1.00
816;DHT22;25928;51.062;13.752;2022-09-02T04:57:11;13.20;1.00
816;DHT22;25928;51.062;13.752;2022-09-02T04:59:37;13.20;1.00
816;DHT22;25928;51.062;13.752;2022-09-02T05:02:04;13.30;1.00
816;DHT22;25928;51.062;13.752;2022-09-02T05:04:30;13.40;1.00
816;DHT22;25928;51.062;13.752;2022-09-02T05:06:56;13.40;1.00
816;DHT22;25928;51.062;13.752;2022-09-02T05:09:26;13.40;1.00
816;DHT22;25928;51.062;13.752;2022-09-02T05:11:52;13.60;1.00
816;DHT22;25928;51.062;13.752;2022-09-02T05:14:22;13.50;1.00
816;DHT22;25928;51.062;13.752;2022-09-02T05:16:47;13.60;1.00
816;DHT22;25928;51.062;13.752;2022-09-02T05:19:20;13.60;1.00
816;DHT22;25928;51.062;13.752;2022-09-02T05:21:48;13.70;1.00
816;DHT22;25928;51.062;13.752;2022-09-02T05:24:14;13.70;1.00
816;DHT22;25928;51.062;13.752;2022-09-02T05:26:40;13.80;1.00
816;DHT22;25928;51.062;13.752;2022-09-02T05:29:06;13.90;1.00
816;DHT22;25928;51.062;13.752;2022-09-02T05:31:33;14.00;1.00
816;DHT22;25928;51.062;13.752;2022-09-02T05:33:58;14.10;1.00
816;DHT22;25928;51.062;13.752;2022-09-02T05:36:24;14.10;1.00
816;DHT22;25928;51.062;13.752;2022-09-02T05:38:50;14.20;1.00
816;DHT22;25928;51.062;13.752;2022-09-02T05:41:21;14.30;1.00
816;DHT22;25928;51.062;13.752;2022-09-02T05:43:58;14.30;1.00
816;DHT22;25928;51.062;13.752;2022-09-02T05:46:25;14.50;1.00
816;DHT22;25928;51.062;13.752;2022-09-02T05:48:53;14.50;1.00
816;DHT22;25928;51.062;13.752;2022-09-02T05:51:39;14.50;1.00
816;DHT22;25928;51.062;13.752;2022-09-02T05:54:08;14.70;1.00
816;DHT22;25928;51.062;13.752;2022-09-02T05:56:37;14.70;1.00
816;DHT22;25928;51.062;13.752;2022-09-02T05:59:02;14.80;1.00
816;DHT22;25928;51.062;13.752;2022-09-02T06:01:28;14.90;1.00
816;DHT22;25928;51.062;13.752;2022-09-02T06:03:54;14.90;1.00
816;DHT22;25928;51.062;13.752;2022-09-02T06:06:21;15.00;1.00
816;DHT22;25928;51.062;13.752;2022-09-02T06:08:48;15.10;1.00
816;DHT22;25928;51.062;13.752;2022-09-02T06:11:14;15.10;1.00
816;DHT22;25928;51.062;13.752;2022-09-02T06:13:41;15.20;1.00
816;DHT22;25928;51.062;13.752;2022-09-02T06:18:33;15.40;1.00
816;DHT22;25928;51.062;13.752;2022-09-02T06:20:58;15.50;1.00
816;DHT22;25928;51.062;13.752;2022-09-02T06:23:24;15.60;1.00
816;DHT22;25928;51.062;13.752;2022-09-02T06:25:50;15.70;1.00
816;DHT22;25928;51.062;13.752;2022-09-02T06:28:15;15.90;1.00
816;DHT22;25928;51.062;13.752;2022-09-02T06:30:43;16.00;1.00
816;DHT22;25928;51.062;13.752;2022-09-02T06:33:11;16.10;1.00
816;DHT22;25928;51.062;13.752;2022-09-02T06:35:39;16.30;1.00
816;DHT22;25928;51.062;13.752;2022-09-02T06:38:05;16.40;1.00
816;DHT22;25928;51.062;13.752;2022-09-02T06:40:31;16.40;1.00
816;DHT22;25928;51.062;13.752;2022-09-02T06:42:57;16.50;1.00
816;DHT22;25928;51.062;13.752;2022-09-02T06:45:23;16.60;1.00
816;DHT22;25928;51.062;13.752;2022-09-02T06:47:49;16.70;1.00
816;DHT22;25928;51.062;13.752;2022-09-02T06:50:16;16.90;1.00
816;DHT22;25928;51.062;13.752;2022-09-02T06:52:42;16.90;1.00
816;DHT22;25928;51.062;13.752;2022-09-02T06:55:08;17.10;1.00
816;DHT22;25928;51.062;13.752;2022-09-02T06:57:38;17.30;1.00
816;DHT22;25928;51.062;13.752;2022-09-02T07:00:08;17.50;1.00
816;DHT22;25928;51.062;13.752;2022-09-02T07:02:35;17.70;1.00
816;DHT22;25928;51.062;13.752;2022-09-02T07:05:01;17.80;1.00
816;DHT22;25928;51.062;13.752;2022-09-02T07:07:41;17.90;1.00
816;DHT22;25928;51.062;13.752;2022-09-02T07:10:10;18.00;1.00
816;DHT22;25928;51.062;13.752;2022-09-02T07:12:37;18.10;1.00
816;DHT22;25928;51.062;13.752;2022-09-02T07:15:05;18.30;1.00
816;DHT22;25928;51.062;13.752;2022-09-02T07:17:31;18.50;1.00
816;DHT22;25928;51.062;13.752;2022-09-02T07:19:57;18.80;1.00
816;DHT22;25928;51.062;13.752;2022-09-02T07:22:25;18.90;1.00
816;DHT22;25928;51.062;13.752;2022-09-02T07:24:51;19.00;1.00
816;DHT22;25928;51.062;13.752;2022-09-02T07:27:17;19.10;1.00
816;DHT22;25928;51.062;13.752;2022-09-02T07:29:45;19.20;1.00
816;DHT22;25928;51.062;13.752;2022-09-02T07:32:13;19.40;1.00
816;DHT22;25928;51.062;13.752;2022-09-02T07:34:39;19.50;1.00
816;DHT22;25928;51.062;13.752;2022-09-02T07:37:04;19.70;1.00
816;DHT22;25928;51.062;13.752;2022-09-02T07:39:31;19.90;1.00
816;DHT22;25928;51.062;13.752;2022-09-02T07:41:56;19.90;1.00
816;DHT22;25928;51.062;13.752;2022-09-02T07:44:22;20.00;1.00
816;DHT22;25928;51.062;13.752;2022-09-02T07:46:48;20.10;1.00
816;DHT22;25928;51.062;13.752;2022-09-02T07:49:14;20.40;1.00
816;DHT22;25928;51.062;13.752;2022-09-02T07:51:42;20.50;1.00
816;DHT22;25928;51.062;13.752;2022-09-02T07:54:10;20.70;1.00
816;DHT22;25928;51.062;13.752;2022-09-02T07:56:36;20.70;1.00
816;DHT22;25928;51.062;13.752;2022-09-02T07:59:01;20.80;1.00
816;DHT22;25928;51.062;13.752;2022-09-02T08:01:27;20.90;1.00
816;DHT22;25928;51.062;13.752;2022-09-02T08:03:53;21.00;1.00
816;DHT22;25928;51.062;13.752;2022-09-02T08:06:20;21.20;1.00
816;DHT22;25928;51.062;13.752;2022-09-02T08:08:49;21.40;1.00
816;DHT22;25928;51.062;13.752;2022-09-02T08:11:14;21.50;1.00
816;DHT22;25928;51.062;13.752;2022-09-02T08:13:40;21.50;1.00
816;DHT22;25928;51.062;13.752;2022-09-02T08:16:06;21.50;1.00
816;DHT22;25928;51.062;13.752;2022-09-02T08:18:32;21.60;1.00
816;DHT22;25928;51.062;13.752;2022-09-02T08:20:58;21.70;1.00
816;DHT22;25928;51.062;13.752;2022-09-02T08:23:24;22.10;1.00
816;DHT22;25928;51.062;13.752;2022-09-02T08:25:50;22.10;1.00
816;DHT22;25928;51.062;13.752;2022-09-02T08:28:15;22.30;1.00
816;DHT22;25928;51.062;13.752;2022-09-02T08:30:41;22.20;1.00
816;DHT22;25928;51.062;13.752;2022-09-02T08:33:07;22.20;1.00
816;DHT22;25928;51.062;13.752;2022-09-02T08:35:32;22.20;1.00
816;DHT22;25928;51.062;13.752;2022-09-02T08:37:59;22.50;1.00
816;DHT22;25928;51.062;13.752;2022-09-02T08:40:33;22.60;1.00
816;DHT22;25928;51.062;13.752;2022-09-02T08:43:00;22.70;1.00
816;DHT22;25928;51.062;13.752;2022-09-02T08:45:37;22.80;1.00
816;DHT22;25928;51.062;13.752;2022-09-02T08:50:44;22.20;1.00
816;DHT22;25928;51.062;13.752;2022-09-02T08:53:36;22.20;1.00
816;DHT22;25928;51.062;13.752;2022-09-02T08:56:09;22.10;1.00
816;DHT22;25928;51.062;13.752;2022-09-02T08:58:42;22.30;1.00
816;DHT22;25928;51.062;13.752;2022-09-02T09:12:36;23.30;1.00
816;DHT22;25928;51.062;13.752;2022-09-02T09:15:13;23.40;1.00
816;DHT22;25928;51.062;13.752;2022-09-02T09:17:57;23.40;1.00
816;DHT22;25928;51.062;13.752;2022-09-02T09:20:37;23.50;1.00
816;DHT22;25928;51.062;13.752;2022-09-02T09:23:29;23.60;1.00
816;DHT22;25928;51.062;13.752;2022-09-02T09:26:12;23.40;1.00
816;DHT22;25928;51.062;13.752;2022-09-02T09:28:46;23.40;1.00
816;DHT22;25928;51.062;13.752;2022-09-02T09:31:23;23.50;1.00
816;DHT22;25928;51.062;13.752;2022-09-02T09:33:58;23.50;1.00
816;DHT22;25928;51.062;13.752;2022-09-02T09:39:21;23.60;1.00
816;DHT22;25928;51.062;13.752;2022-09-02T09:41:50;24.50;1.00
816;DHT22;25928;51.062;13.752;2022-09-02T09:44:42;24.30;1.00
816;DHT22;25928;51.062;13.752;2022-09-02T09:47:17;24.90;1.00
816;DHT22;25928;51.062;13.752;2022-09-02T09:50:08;24.90;1.00
816;DHT22;25928;51.062;13.752;2022-09-02T09:52:30;25.40;1.00
816;DHT22;25928;51.062;13.752;2022-09-02T09:55:16;25.90;1.00
816;DHT22;25928;51.062;13.752;2022-09-02T09:57:44;25.90;1.00
816;DHT22;25928;51.062;13.752;2022-09-02T10:00:20;26.20;1.00
816;DHT22;25928;51.062;13.752;2022-09-02T10:02:49;26.10;1.00
816;DHT22;25928;51.062;13.752;2022-09-02T10:05:36;25.90;1.00
816;DHT22;25928;51.062;13.752;2022-09-02T10:08:23;25.50;1.00
816;DHT22;25928;51.062;13.752;2022-09-02T10:11:25;25.30;1.00
816;DHT22;25928;51.062;13.752;2022-09-02T10:13:55;25.00;1.00
816;DHT22;25928;51.062;13.752;2022-09-02T10:16:27;24.70;1.00
816;DHT22;25928;51.062;13.752;2022-09-02T10:27:30;23.80;1.00
816;DHT22;25928;51.062;13.752;2022-09-02T10:30:10;23.90;1.00
816;DHT22;25928;51.062;13.752;2022-09-02T10:32:49;24.00;1.00
816;DHT22;25928;51.062;13.752;2022-09-02T10:40:49;23.90;1.00
816;DHT22;25928;51.062;13.752;2022-09-02T10:46:08;24.10;1.00
816;DHT22;25928;51.062;13.752;2022-09-02T10:49:00;24.10;1.00
816;DHT22;25928;51.062;13.752;2022-09-02T10:51:52;23.90;1.00
816;DHT22;25928;51.062;13.752;2022-09-02T10:57:07;24.00;1.00
816;DHT22;25928;51.062;13.752;2022-09-02T11:02:20;24.10;1.00
816;DHT22;25928;51.062;13.752;2022-09-02T11:04:55;24.10;1.00
816;DHT22;25928;51.062;13.752;2022-09-02T11:07:29;24.10;1.00
816;DHT22;25928;51.062;13.752;2022-09-02T11:10:21;24.20;1.00
816;DHT22;25928;51.062;13.752;2022-09-02T11:13:50;24.00;1.00
816;DHT22;25928;51.062;13.752;2022-09-02T11:15:58;23.90;1.00
816;DHT22;25928;51.062;13.752;2022-09-02T11:18:37;24.10;1.00
816;DHT22;25928;51.062;13.752;2022-09-02T11:21:48;24.40;1.00
816;DHT22;25928;51.062;13.752;2022-09-02T11:27:02;24.90;1.00
816;DHT22;25928;51.062;13.752;2022-09-02T11:29:32;24.90;1.00
816;DHT22;25928;51.062;13.752;2022-09-02T11:32:21;24.60;1.00
816;DHT22;25928;51.062;13.752;2022-09-02T11:34:51;24.80;1.00
816;DHT22;25928;51.062;13.752;2022-09-02T11:37:42;24.00;1.00
816;DHT22;25928;51.062;13.752;2022-09-02T11:40:38;23.80;1.00
816;DHT22;25928;51.062;13.752;2022-09-02T11:43:34;23.40;1.00
816;DHT22;25928;51.062;13.752;2022-09-02T11:54:20;23.30;1.00
816;DHT22;25928;51.062;13.752;2022-09-02T11:56:53;23.50;1.00
816;DHT22;25928;51.062;13.752;2022-09-02T12:02:11;24.00;1.00
816;DHT22;25928;51.062;13.752;2022-09-02T12:04:37;24.30;1.00
816;DHT22;25928;51.062;13.752;2022-09-02T12:09:50;24.70;1.00
816;DHT22;25928;51.062;13.752;2022-09-02T12:23:03;24.80;1.00
816;DHT22;25928;51.062;13.752;2022-09-02T12:33:36;24.10;1.00
816;DHT22;25928;51.062;13.752;2022-09-02T12:36:10;24.70;1.00
816;DHT22;25928;51.062;13.752;2022-09-02T12:38:54;24.70;1.00
816;DHT22;25928;51.062;13.752;2022-09-02T12:41:27;24.70;1.00
816;DHT22;25928;51.062;13.752;2022-09-02T12:55:25;24.50;1.00
816;DHT22;25928;51.062;13.752;2022-09-02T12:58:03;24.70;1.00
816;DHT22;25928;51.062;13.752;2022-09-02T13:06:49;24.30;1.00
816;DHT22;25928;51.062;13.752;2022-09-02T13:12:14;23.70;1.00
816;DHT22;25928;51.062;13.752;2022-09-02T13:15:21;23.50;1.00
816;DHT22;25928;51.062;13.752;2022-09-02T13:20:47;23.50;1.00
816;DHT22;25928;51.062;13.752;2022-09-02T13:31:26;22.80;1.00
816;DHT22;25928;51.062;13.752;2022-09-02T13:33:59;22.80;1.00
816;DHT22;25928;51.062;13.752;2022-09-02T13:36:50;22.80;1.00
816;DHT22;25928;51.062;13.752;2022-09-02T13:39:22;23.00;1.00
816;DHT22;25928;51.062;13.752;2022-09-02T13:41:48;23.20;1.00
816;DHT22;25928;51.062;13.752;2022-09-02T13:44:27;23.40;1.00
816;DHT22;25928;51.062;13.752;2022-09-02T13:47:04;23.20;1.00
816;DHT22;25928;51.062;13.752;2022-09-02T13:49:39;23.10;1.00
816;DHT22;25928;51.062;13.752;2022-09-02T13:52:11;22.90;1.00
816;DHT22;25928;51.062;13.752;2022-09-02T13:54:38;22.80;1.00
816;DHT22;25928;51.062;13.752;2022-09-02T13:57:10;22.80;1.00
816;DHT22;25928;51.062;13.752;2022-09-02T13:59:46;23.10;1.00
816;DHT22;25928;51.062;13.752;2022-09-02T14:02:26;23.60;1.00
816;DHT22;25928;51.062;13.752;2022-09-02T14:05:10;23.70;1.00
816;DHT22;25928;51.062;13.752;2022-09-02T14:07:48;24.10;1.00
816;DHT22;25928;51.062;13.752;2022-09-02T14:10:17;24.90;1.00
816;DHT22;25928;51.062;13.752;2022-09-02T14:12:44;24.90;1.00
816;DHT22;25928;51.062;13.752;2022-09-02T14:15:14;25.30;1.00
816;DHT22;25928;51.062;13.752;2022-09-02T14:17:40;25.20;1.00
816;DHT22;25928;51.062;13.752;2022-09-02T14:22:40;25.20;1.00
816;DHT22;25928;51.062;13.752;2022-09-02T14:25:13;25.10;1.00
816;DHT22;25928;51.062;13.752;2022-09-02T14:27:46;25.10;1.00
816;DHT22;25928;51.062;13.752;2022-09-02T14:30:37;25.00;1.00
816;DHT22;25928;51.062;13.752;2022-09-02T14:38:55;25.30;1.00
816;DHT22;25928;51.062;13.752;2022-09-02T14:41:26;25.30;1.00
816;DHT22;25928;51.062;13.752;2022-09-02T14:44:07;25.10;1.00
816;DHT22;25928;51.062;13.752;2022-09-02T14:46:48;24.70;1.00
816;DHT22;25928;51.062;13.752;2022-09-02T14:49:48;24.50;1.00
816;DHT22;25928;51.062;13.752;2022-09-02T14:52:25;24.30;1.00
816;DHT22;25928;51.062;13.752;2022-09-02T14:54:54;24.10;1.00
816;DHT22;25928;51.062;13.752;2022-09-02T14:59:49;24.10;1.00
816;DHT22;25928;51.062;13.752;2022-09-02T15:04:58;24.00;1.00
816;DHT22;25928;51.062;13.752;2022-09-02T15:07:24;23.80;1.00
816;DHT22;25928;51.062;13.752;2022-09-02T15:09:50;23.70;1.00
816;DHT22;25928;51.062;13.752;2022-09-02T15:12:18;23.70;1.00
816;DHT22;25928;51.062;13.752;2022-09-02T15:14:44;23.70;1.00
816;DHT22;25928;51.062;13.752;2022-09-02T15:17:13;23.70;1.00
816;DHT22;25928;51.062;13.752;2022-09-02T15:19:39;23.80;1.00
816;DHT22;25928;51.062;13.752;2022-09-02T15:22:05;23.90;1.00
816;DHT22;25928;51.062;13.752;2022-09-02T15:24:30;23.90;1.00
816;DHT22;25928;51.062;13.752;2022-09-02T15:26:56;25.30;1.00
816;DHT22;25928;51.062;13.752;2022-09-02T15:29:22;27.40;1.00
816;DHT22;25928;51.062;13.752;2022-09-02T15:31:50;29.10;1.00
816;DHT22;25928;51.062;13.752;2022-09-02T15:34:16;30.50;1.00
816;DHT22;25928;51.062;13.752;2022-09-02T15:39:08;32.20;1.00
816;DHT22;25928;51.062;13.752;2022-09-02T15:41:34;32.30;1.00
816;DHT22;25928;51.062;13.752;2022-09-02T15:44:00;31.40;1.00
816;DHT22;25928;51.062;13.752;2022-09-02T15:46:31;30.10;1.00
816;DHT22;25928;51.062;13.752;2022-09-02T15:49:01;28.40;1.00
816;DHT22;25928;51.062;13.752;2022-09-02T15:51:27;27.20;1.00
816;DHT22;25928;51.062;13.752;2022-09-02T15:53:54;26.00;1.00
816;DHT22;25928;51.062;13.752;2022-09-02T15:56:23;25.00;1.00
816;DHT22;25928;51.062;13.752;2022-09-02T15:58:59;24.40;1.00
816;DHT22;25928;51.062;13.752;2022-09-02T16:01:30;24.00;1.00
816;DHT22;25928;51.062;13.752;2022-09-02T16:03:56;23.90;1.00
816;DHT22;25928;51.062;13.752;2022-09-02T16:06:24;23.90;1.00
816;DHT22;25928;51.062;13.752;2022-09-02T16:08:50;23.90;1.00
816;DHT22;25928;51.062;13.752;2022-09-02T16:11:17;23.90;1.00
816;DHT22;25928;51.062;13.752;2022-09-02T16:13:43;23.80;1.00
816;DHT22;25928;51.062;13.752;2022-09-02T16:16:11;23.70;1.00
816;DHT22;25928;51.062;13.752;2022-09-02T16:18:38;23.70;1.00
816;DHT22;25928;51.062;13.752;2022-09-02T16:21:11;23.90;1.00
816;DHT22;25928;51.062;13.752;2022-09-02T16:23:37;24.60;1.00
816;DHT22;25928;51.062;13.752;2022-09-02T16:26:15;24.60;1.00
816;DHT22;25928;51.062;13.752;2022-09-02T16:28:45;24.50;1.00
816;DHT22;25928;51.062;13.752;2022-09-02T16:31:15;24.30;1.00
816;DHT22;25928;51.062;13.752;2022-09-02T16:33:54;24.10;1.00
816;DHT22;25928;51.062;13.752;2022-09-02T16:36:20;23.70;1.00
816;DHT22;25928;51.062;13.752;2022-09-02T16:38:45;23.40;1.00
816;DHT22;25928;51.062;13.752;2022-09-02T16:41:29;23.20;1.00
816;DHT22;25928;51.062;13.752;2022-09-02T16:43:58;23.00;1.00
816;DHT22;25928;51.062;13.752;2022-09-02T16:46:25;22.80;1.00
816;DHT22;25928;51.062;13.752;2022-09-02T16:48:51;22.70;1.00
816;DHT22;25928;51.062;13.752;2022-09-02T16:51:17;22.60;1.00
816;DHT22;25928;51.062;13.752;2022-09-02T16:53:43;22.60;1.00
816;DHT22;25928;51.062;13.752;2022-09-02T16:56:13;22.30;1.00
816;DHT22;25928;51.062;13.752;2022-09-02T16:58:39;22.20;1.00
816;DHT22;25928;51.062;13.752;2022-09-02T17:01:09;22.00;1.00
816;DHT22;25928;51.062;13.752;2022-09-02T17:03:37;21.90;1.00
816;DHT22;25928;51.062;13.752;2022-09-02T17:06:03;21.80;1.00
816;DHT22;25928;51.062;13.752;2022-09-02T17:08:34;21.70;1.00
816;DHT22;25928;51.062;13.752;2022-09-02T17:11:24;21.50;1.00
816;DHT22;25928;51.062;13.752;2022-09-02T17:13:51;21.50;1.00
816;DHT22;25928;51.062;13.752;2022-09-02T17:16:19;21.50;1.00
816;DHT22;25928;51.062;13.752;2022-09-02T17:18:45;21.50;1.00
816;DHT22;25928;51.062;13.752;2022-09-02T17:21:15;21.50;1.00
816;DHT22;25928;51.062;13.752;2022-09-02T17:23:41;21.60;1.00
816;DHT22;25928;51.062;13.752;2022-09-02T17:26:30;21.60;1.00
816;DHT22;25928;51.062;13.752;2022-09-02T17:28:58;21.50;1.00
816;DHT22;25928;51.062;13.752;2022-09-02T17:31:31;21.50;1.00
816;DHT22;25928;51.062;13.752;2022-09-02T17:34:00;21.40;1.00
816;DHT22;25928;51.062;13.752;2022-09-02T17:36:28;21.30;1.00
816;DHT22;25928;51.062;13.752;2022-09-02T17:39:01;21.20;1.00
816;DHT22;25928;51.062;13.752;2022-09-02T17:41:27;21.10;1.00
816;DHT22;25928;51.062;13.752;2022-09-02T17:44:13;20.90;1.00
816;DHT22;25928;51.062;13.752;2022-09-02T17:46:40;20.90;1.00
816;DHT22;25928;51.062;13.752;2022-09-02T17:49:06;20.70;1.00
816;DHT22;25928;51.062;13.752;2022-09-02T17:51:32;20.60;1.00
816;DHT22;25928;51.062;13.752;2022-09-02T17:53:58;20.50;1.00
816;DHT22;25928;51.062;13.752;2022-09-02T18:05:08;20.10;1.00
816;DHT22;25928;51.062;13.752;2022-09-02T18:07:34;20.10;1.00
816;DHT22;25928;51.062;13.752;2022-09-02T18:10:04;19.90;1.00
816;DHT22;25928;51.062;13.752;2022-09-02T18:12:29;19.90;1.00
816;DHT22;25928;51.062;13.752;2022-09-02T18:14:57;19.80;1.00
816;DHT22;25928;51.062;13.752;2022-09-02T18:17:32;19.80;1.00
816;DHT22;25928;51.062;13.752;2022-09-02T18:31:53;19.80;1.00
816;DHT22;25928;51.062;13.752;2022-09-02T18:37:09;19.90;1.00
816;DHT22;25928;51.062;13.752;2022-09-02T18:45:23;19.90;1.00
816;DHT22;25928;51.062;13.752;2022-09-02T18:48:08;19.80;1.00
816;DHT22;25928;51.062;13.752;2022-09-02T18:50:46;19.80;1.00
816;DHT22;25928;51.062;13.752;2022-09-02T18:53:19;19.80;1.00
816;DHT22;25928;51.062;13.752;2022-09-02T18:55:46;19.80;1.00
816;DHT22;25928;51.062;13.752;2022-09-02T19:00:54;19.80;1.00